Time;durP1;ratioP1;P1;durP2;ratioP2;P2;SDS_P1;SDS_P2;PMS_P1;PMS_P2;Temp;Humidity;BMP_temperature;BMP_pressure;BME280_temperature;BME280_humidity;BME280_pressure;Samples;Min_cycle;Max_cycle;Signal;HPM_P1;HPM_P2
2022/05/23 00:02:12;;;;;;;6.30;6.00;;;;;;;13.62;65.06;100091.63;5033003;28;20041;-65
2022/05/23 00:04:38;;;;;;;6.40;6.10;;;;;;;13.54;65.40;100097.97;5033052;28;20154;-65
2022/05/23 00:07:12;;;;;;;6.20;5.95;;;;;;;13.54;65.59;100103.31;5027725;28;20025;-64
2022/05/23 00:09:37;;;;;;;6.45;6.15;;;;;;;13.54;65.68;100100.66;5027198;28;20021;-65
2022/05/23 00:12:03;;;;;;;5.82;5.63;;;;;;;13.61;65.54;100092.66;5031545;28;20396;-65
2022/05/23 00:14:30;;;;;;;6.10;5.90;;;;;;;13.63;64.69;100093.25;5032223;28;20021;-65
2022/05/23 00:16:55;;;;;;;6.00;5.80;;;;;;;13.61;64.84;100099.84;5031699;28;20176;-65
2022/05/23 00:19:22;;;;;;;6.10;5.90;;;;;;;13.62;65.26;100101.47;5022524;28;20519;-65
2022/05/23 00:21:48;;;;;;;5.88;5.68;;;;;;;13.64;65.14;100099.41;5037769;28;20112;-65
2022/05/23 00:24:15;;;;;;;6.30;6.00;;;;;;;13.63;65.87;100097.78;5032727;28;20086;-66
2022/05/23 00:26:43;;;;;;;6.00;5.80;;;;;;;13.55;65.86;100107.63;5032759;28;20025;-65
2022/05/23 00:29:09;;;;;;;5.90;5.70;;;;;;;13.48;66.46;100104.13;5031490;28;20045;-65
2022/05/23 00:31:34;;;;;;;6.10;5.88;;;;;;;13.42;66.42;100107.59;5031597;28;20056;-65
2022/05/23 00:36:44;;;;;;;6.10;5.88;;;;;;;13.41;65.69;100102.47;5033303;28;20040;-65
2022/05/23 00:39:10;;;;;;;6.40;6.10;;;;;;;13.41;65.26;100100.63;5019729;28;20486;-65
2022/05/23 00:44:29;;;;;;;6.30;6.03;;;;;;;13.42;65.18;100112.94;5031471;28;20056;-65
2022/05/23 00:46:57;;;;;;;6.35;6.05;;;;;;;13.41;65.42;100105.16;5032307;28;20022;-65
2022/05/23 00:49:28;;;;;;;6.57;6.28;;;;;;;13.38;65.52;100114.38;5030102;28;20139;-65
2022/05/23 00:51:56;;;;;;;6.07;5.88;;;;;;;13.30;65.82;100108.44;5032337;28;20146;-65
2022/05/23 00:54:24;;;;;;;5.93;5.72;;;;;;;13.31;65.78;100105.56;5028619;28;20030;-65
2022/05/23 00:56:52;;;;;;;6.50;6.20;;;;;;;13.24;66.01;100108.19;5022818;28;20029;-66
2022/05/23 00:59:27;;;;;;;6.35;6.05;;;;;;;13.24;66.13;100113.53;5029390;28;20036;-65
2022/05/23 01:01:53;;;;;;;6.10;5.90;;;;;;;13.21;66.35;100113.09;5032158;28;20025;-66
2022/05/23 01:04:19;;;;;;;6.10;5.90;;;;;;;13.19;66.53;100112.44;5031337;28;20033;-66
2022/05/23 01:06:44;;;;;;;6.38;6.07;;;;;;;13.26;66.18;100102.66;5032035;28;20096;-65
2022/05/23 01:09:10;;;;;;;6.00;5.80;;;;;;;13.30;66.14;100101.25;5031127;28;20025;-66
2022/05/23 01:11:37;;;;;;;6.10;5.90;;;;;;;13.30;65.83;100105.75;5032568;28;20443;-64
2022/05/23 01:14:03;;;;;;;6.03;5.82;;;;;;;13.31;65.68;100105.56;5031997;28;20049;-64
2022/05/23 01:16:28;;;;;;;6.00;5.80;;;;;;;13.25;65.67;100098.38;5031973;28;20128;-64
2022/05/23 01:18:54;;;;;;;6.00;5.80;;;;;;;13.27;65.52;100094.47;5031916;28;20472;-64
2022/05/23 01:21:37;;;;;;;6.00;5.80;;;;;;;13.33;65.72;100106.16;5031829;28;20536;-65
2022/05/23 01:24:18;;;;;;;6.10;5.90;;;;;;;13.33;65.43;100092.84;5029179;28;20037;-65
2022/05/23 01:26:43;;;;;;;6.03;5.82;;;;;;;13.33;65.57;100092.03;5018762;28;20104;-65
2022/05/23 01:29:13;;;;;;;6.07;5.88;;;;;;;13.29;65.90;100096.91;5037865;28;20133;-65
2022/05/23 01:31:40;;;;;;;6.30;6.00;;;;;;;13.23;65.91;100090.59;5031616;28;20552;-66
2022/05/23 01:34:06;;;;;;;6.10;5.90;;;;;;;13.19;65.56;100070.66;5024767;28;20029;-65
2022/05/23 01:36:32;;;;;;;6.40;6.10;;;;;;;13.16;66.10;100081.72;5031583;28;20021;-65
2022/05/23 01:38:57;;;;;;;6.10;5.90;;;;;;;13.21;66.28;100100.59;5029321;28;20029;-65
2022/05/23 01:41:23;;;;;;;6.03;5.82;;;;;;;13.21;65.96;100092.59;5031979;28;20048;-65
2022/05/23 01:43:48;;;;;;;6.32;6.03;;;;;;;13.16;66.54;100100.38;5031477;28;20553;-65
2022/05/23 01:46:14;;;;;;;6.22;6.00;;;;;;;13.12;66.91;100093.78;5035631;28;20021;-66
2022/05/23 01:48:39;;;;;;;5.88;5.68;;;;;;;13.08;66.82;100089.91;5035748;28;20017;-65
2022/05/23 01:51:05;;;;;;;5.88;5.68;;;;;;;13.04;67.30;100091.31;5034238;28;20087;-65
2022/05/23 01:53:30;;;;;;;5.90;5.70;;;;;;;12.98;67.05;100095.59;5035389;28;20025;-65
2022/05/23 01:55:58;;;;;;;6.25;5.95;;;;;;;13.01;67.03;100097.06;5034866;28;20034;-66
2022/05/23 02:01:15;;;;;;;;;;;;;;;13.00;67.76;100098.09;5037104;28;20037;-65
2022/05/23 02:03:45;;;;;;;5.88;5.68;;;;;;;12.92;68.27;100099.06;5043252;28;20281;-66
2022/05/23 02:06:12;;;;;;;6.30;6.00;;;;;;;12.91;68.20;100099.25;5036336;28;20493;-65
2022/05/23 02:08:38;;;;;;;6.35;6.05;;;;;;;12.90;68.41;100103.78;5034016;28;20025;-66
2022/05/23 02:11:06;;;;;;;6.35;6.05;;;;;;;12.93;68.25;100094.59;5033324;28;20503;-65
2022/05/23 02:13:43;;;;;;;6.28;6.00;;;;;;;12.89;68.73;100088.81;5034872;28;20071;-65
2022/05/23 02:16:09;;;;;;;6.47;6.18;;;;;;;12.91;68.45;100091.28;5035199;28;20061;-66
2022/05/23 02:18:35;;;;;;;6.03;5.82;;;;;;;12.86;68.55;100091.09;5035262;28;20112;-65
2022/05/23 02:21:00;;;;;;;6.00;5.80;;;;;;;12.84;68.66;100093.91;5034975;28;20109;-65
2022/05/23 02:23:26;;;;;;;6.50;6.20;;;;;;;12.83;68.82;100091.47;5035332;28;20116;-64
2022/05/23 02:25:52;;;;;;;5.90;5.70;;;;;;;12.83;68.64;100091.47;5035233;28;20477;-65
2022/05/23 02:28:21;;;;;;;6.00;5.80;;;;;;;12.87;68.37;100096.19;5034769;28;20107;-66
2022/05/23 02:30:47;;;;;;;5.90;5.70;;;;;;;12.87;68.55;100085.56;5035138;28;20033;-66
2022/05/23 02:33:14;;;;;;;5.88;5.68;;;;;;;12.82;68.49;100087.16;5035014;28;20496;-65
2022/05/23 02:35:40;;;;;;;5.88;5.68;;;;;;;12.87;68.59;100085.56;5040627;28;20033;-66
2022/05/23 02:38:05;;;;;;;5.97;5.78;;;;;;;12.86;68.87;100091.09;5042115;28;20032;-64
2022/05/23 02:40:31;;;;;;;5.90;5.70;;;;;;;12.96;68.49;100094.16;5030864;28;20046;-65
2022/05/23 02:42:58;;;;;;;6.28;5.97;;;;;;;12.94;68.54;100098.88;5025587;28;20028;-65
2022/05/23 02:45:23;;;;;;;6.10;5.88;;;;;;;12.97;68.07;100080.66;5034505;28;20077;-64
2022/05/23 02:47:49;;;;;;;6.10;5.90;;;;;;;12.92;68.86;100099.06;5034648;28;20115;-65
2022/05/23 02:50:15;;;;;;;6.10;5.90;;;;;;;12.97;68.79;100093.97;5034472;28;20033;-66
2022/05/23 02:52:42;;;;;;;6.10;5.90;;;;;;;12.98;68.11;100090.28;5033487;28;20542;-65
2022/05/23 02:55:09;;;;;;;6.30;6.00;;;;;;;12.99;68.27;100096.41;5034196;28;20030;-65
2022/05/23 02:57:34;;;;;;;6.03;5.82;;;;;;;12.98;68.25;100090.28;5034159;28;20029;-65
2022/05/23 03:00:00;;;;;;;5.85;5.65;;;;;;;12.90;68.50;100086.97;5023656;28;20030;-65
2022/05/23 03:05:10;;;;;;;7.05;6.75;;;;;;;13.04;68.81;100103.81;5032204;28;20519;-65
2022/05/23 03:07:36;;;;;;;6.45;6.15;;;;;;;12.98;68.69;100103.59;5025089;28;20041;-65
2022/05/23 03:10:02;;;;;;;6.20;6.00;;;;;;;12.99;68.84;100101.75;5034536;28;20033;-65
2022/05/23 03:12:28;;;;;;;5.80;5.60;;;;;;;12.99;68.44;100099.91;5034170;28;20025;-65
2022/05/23 03:14:54;;;;;;;6.05;5.85;;;;;;;12.97;68.71;100109.94;5034081;28;20135;-65
2022/05/23 03:17:20;;;;;;;6.20;6.00;;;;;;;13.06;68.68;100104.44;5034055;28;20505;-65
2022/05/23 03:19:46;;;;;;;6.70;6.40;;;;;;;13.06;68.55;100107.91;5033408;28;20029;-64
2022/05/23 03:27:42;;;;;;;6.10;5.90;;;;;;;13.10;68.99;100109.16;5034357;28;20042;-65
2022/05/23 03:30:08;;;;;;;6.05;5.85;;;;;;;13.11;68.56;100116.13;5034105;28;20028;-65
2022/05/23 03:32:34;;;;;;;6.20;6.00;;;;;;;13.21;68.88;100113.09;5020114;28;20106;-65
2022/05/23 03:35:00;;;;;;;5.90;5.70;;;;;;;13.21;69.23;100121.91;5033717;28;20056;-65
2022/05/23 03:37:25;;;;;;;6.00;5.80;;;;;;;13.23;69.39;100119.88;5033527;28;20486;-65
2022/05/23 03:39:51;;;;;;;6.10;5.88;;;;;;;13.15;69.31;100120.03;5032426;28;20507;-65
2022/05/23 03:42:17;;;;;;;6.07;5.88;;;;;;;13.11;69.72;100120.63;5047992;28;20029;-66
2022/05/23 03:44:43;;;;;;;6.50;6.20;;;;;;;13.18;69.27;100121.47;5032391;28;20421;-64
2022/05/23 03:47:09;;;;;;;6.03;5.82;;;;;;;13.18;69.27;100121.47;5026694;28;20029;-65
2022/05/23 03:49:34;;;;;;;6.50;6.20;;;;;;;13.28;69.16;100124.59;5035465;28;20087;-66
2022/05/23 03:52:00;;;;;;;6.05;5.85;;;;;;;13.35;68.95;100121.94;5042618;28;20730;-67
2022/05/23 03:54:26;;;;;;;6.55;6.25;;;;;;;13.28;69.42;100127.25;5032704;28;20025;-65
2022/05/23 03:56:51;;;;;;;6.45;6.15;;;;;;;13.18;69.92;100118.81;5037720;28;20040;-66
2022/05/23 03:59:17;;;;;;;6.15;5.93;;;;;;;13.37;68.73;100117.25;5041729;28;20104;-65
2022/05/23 04:01:42;;;;;;;6.28;6.00;;;;;;;13.22;69.81;100123.56;5042905;28;20033;-66
2022/05/23 04:04:08;;;;;;;6.30;6.00;;;;;;;13.25;69.43;100120.50;5037848;28;20029;-66
2022/05/23 04:06:35;;;;;;;6.15;5.95;;;;;;;13.28;69.25;100114.75;5036938;28;20029;-66
2022/05/23 04:09:01;;;;;;;6.50;6.20;;;;;;;13.32;69.25;100117.03;5038189;28;20028;-65
2022/05/23 04:11:27;;;;;;;6.95;6.65;;;;;;;13.48;69.20;100121.97;5037210;28;20049;-64
2022/05/23 04:13:52;;;;;;;5.95;5.75;;;;;;;13.52;68.70;100121.34;5038795;28;20025;-65
2022/05/23 04:16:18;;;;;;;6.18;5.90;;;;;;;13.58;68.47;100113.56;5030316;28;20029;-65
2022/05/23 04:18:43;;;;;;;6.10;5.90;;;;;;;13.76;67.97;100109.25;5032833;28;20075;-65
2022/05/23 04:21:09;;;;;;;6.20;5.95;;;;;;;13.81;67.44;100114.00;5032642;28;20032;-66
2022/05/23 04:23:35;;;;;;;6.75;6.45;;;;;;;13.96;67.30;100117.25;5019595;28;20079;-66
2022/05/23 04:26:06;;;;;;;6.10;5.90;;;;;;;14.04;67.08;100118.91;5032996;28;20055;-66
2022/05/23 04:28:33;;;;;;;6.82;6.53;;;;;;;14.00;66.73;100110.47;5031521;28;20489;-66
2022/05/23 04:30:58;;;;;;;6.50;6.20;;;;;;;14.05;66.45;100110.69;5032134;28;20033;-65
2022/05/23 04:36:08;;;;;;;6.20;5.95;;;;;;;14.26;65.80;100112.28;5033126;28;20452;-64
2022/05/23 04:38:34;;;;;;;7.00;6.70;;;;;;;14.17;65.73;100116.19;5024223;28;20033;-66
2022/05/23 04:40:59;;;;;;;6.15;5.93;;;;;;;14.30;65.23;100116.16;5027166;28;20438;-65
2022/05/23 04:43:25;;;;;;;6.47;6.18;;;;;;;14.30;65.09;100115.34;5030408;28;20599;-65
2022/05/23 04:45:50;;;;;;;6.10;5.90;;;;;;;14.35;65.29;100118.22;5031773;28;20063;-67
2022/05/23 04:51:00;;;;;;;6.70;6.40;;;;;;;14.45;64.96;100109.75;5031670;28;20103;-67
2022/05/23 04:53:26;;;;;;;6.38;6.07;;;;;;;14.41;64.88;100116.56;5031665;28;20045;-65
2022/05/23 04:55:52;;;;;;;7.20;6.90;;;;;;;14.41;64.59;100114.72;5031804;28;20120;-66
2022/05/23 04:58:18;;;;;;;6.32;6.03;;;;;;;14.45;64.47;100115.91;5018609;28;20552;-65
2022/05/23 05:00:43;;;;;;;6.40;6.10;;;;;;;14.48;64.36;100120.06;5029041;28;20374;-63
2022/05/23 05:03:09;;;;;;;6.40;6.10;;;;;;;14.64;63.41;100117.75;5028215;28;20105;-64
2022/05/23 05:05:35;;;;;;;6.85;6.55;;;;;;;14.38;64.51;100123.13;5031160;28;20029;-64
2022/05/23 05:08:02;;;;;;;6.75;6.45;;;;;;;14.70;63.25;100123.28;5030740;28;20033;-65
2022/05/23 05:10:28;;;;;;;6.50;6.20;;;;;;;14.88;63.82;100121.53;5031833;28;20519;-66
2022/05/23 05:12:55;;;;;;;6.30;6.00;;;;;;;14.80;63.14;100124.44;5020790;28;20587;-67
2022/05/23 05:15:22;;;;;;;6.38;6.07;;;;;;;14.83;63.47;100126.69;5031586;28;20025;-66
2022/05/23 05:17:47;;;;;;;6.40;6.10;;;;;;;14.66;63.52;100122.88;5031047;28;20033;-66
2022/05/23 05:20:14;;;;;;;6.60;6.30;;;;;;;15.00;62.67;100129.72;5031341;28;20443;-64
2022/05/23 05:22:40;;;;;;;6.60;6.30;;;;;;;14.91;62.76;100131.81;5028202;28;20032;-65
2022/05/23 05:25:07;;;;;;;6.90;6.60;;;;;;;14.88;62.34;100131.41;5030802;28;20029;-64
2022/05/23 05:27:34;;;;;;;6.60;6.30;;;;;;;15.02;62.02;100126.81;5030911;28;20037;-64
2022/05/23 05:30:00;;;;;;;6.38;6.07;;;;;;;15.32;61.34;100130.53;5027263;28;20025;-65
2022/05/23 05:32:35;;;;;;;6.35;6.05;;;;;;;15.45;60.84;100132.31;5027343;28;20029;-66
2022/05/23 05:35:26;;;;;;;6.38;6.07;;;;;;;15.38;61.11;100131.53;5022568;28;20509;-65
2022/05/23 05:37:58;;;;;;;6.10;5.90;;;;;;;15.72;59.69;100123.09;5029148;28;20041;-65
2022/05/23 05:40:26;;;;;;;6.80;6.50;;;;;;;15.86;59.49;100131.81;5030838;28;20017;-65
2022/05/23 05:42:58;;;;;;;6.50;6.20;;;;;;;16.53;57.35;100140.88;5020660;28;20033;-64
2022/05/23 05:45:32;;;;;;;6.50;6.20;;;;;;;16.56;56.90;100132.38;5030267;28;20489;-65
2022/05/23 05:47:59;;;;;;;6.70;6.40;;;;;;;16.78;56.04;100139.97;5027493;28;20492;-66
2022/05/23 05:50:31;;;;;;;6.45;6.15;;;;;;;16.79;55.09;100125.53;5031298;28;20036;-65
2022/05/23 05:53:00;;;;;;;6.70;6.40;;;;;;;16.96;54.81;100139.13;5024090;28;20033;-65
2022/05/23 05:55:26;;;;;;;6.60;6.30;;;;;;;17.26;53.94;100137.28;5035157;28;20083;-65
2022/05/23 05:57:52;;;;;;;6.70;6.40;;;;;;;17.50;53.35;100132.81;5030762;28;20480;-65
2022/05/23 06:00:18;;;;;;;6.70;6.40;;;;;;;17.98;51.86;100133.72;5030224;28;20385;-66
2022/05/23 06:02:44;;;;;;;6.70;6.40;;;;;;;18.58;50.62;100130.75;5031203;28;20109;-65
2022/05/23 06:05:10;;;;;;;6.20;6.00;;;;;;;18.74;49.23;100127.38;5028056;28;20029;-68
2022/05/23 06:13:04;;;;;;;6.60;6.30;;;;;;;20.17;45.52;100129.88;5028864;28;20532;-69
2022/05/23 06:15:29;;;;;;;6.75;6.45;;;;;;;21.10;43.36;100130.81;5031736;28;20034;-68
2022/05/23 06:17:55;;;;;;;6.68;6.38;;;;;;;23.15;39.45;100132.75;5036240;28;20108;-69
2022/05/23 06:20:23;;;;;;;6.80;6.50;;;;;;;22.82;38.75;100125.84;5033951;28;20181;-68
2022/05/23 06:22:50;;;;;;;6.72;6.43;;;;;;;25.71;33.49;100136.41;5034628;28;20441;-67
2022/05/23 06:25:16;;;;;;;6.80;6.50;;;;;;;24.57;34.54;100122.13;5037632;28;20664;-68
2022/05/23 06:27:41;;;;;;;7.00;6.70;;;;;;;23.49;36.13;100113.31;5034260;28;20118;-68
2022/05/23 06:30:09;;;;;;;6.70;6.40;;;;;;;22.11;39.17;100121.97;5027484;28;20038;-68
2022/05/23 06:32:35;;;;;;;6.93;6.63;;;;;;;23.99;36.23;100115.22;5042776;28;20485;-68
2022/05/23 06:35:01;;;;;;;7.10;6.80;;;;;;;26.22;31.65;100116.09;5035598;28;20115;-68
2022/05/23 06:37:27;;;;;;;7.20;6.90;;;;;;;26.95;31.05;100118.50;5030963;28;20030;-67
2022/05/23 06:39:52;;;;;;;7.03;6.72;;;;;;;28.11;29.19;100115.03;5032207;28;20025;-69
2022/05/23 06:42:18;;;;;;;7.30;7.00;;;;;;;29.05;27.89;100114.53;5027607;28;20112;-65
2022/05/23 06:44:44;;;;;;;7.22;6.93;;;;;;;30.49;25.99;100118.84;5028368;28;20050;-65
2022/05/23 06:47:09;;;;;;;6.80;6.50;;;;;;;26.11;31.07;100108.06;5034807;28;20036;-64
2022/05/23 06:49:35;;;;;;;6.88;6.57;;;;;;;24.50;33.32;100104.25;5039661;28;20035;-64
2022/05/23 06:52:02;;;;;;;6.80;6.50;;;;;;;25.00;32.56;100105.09;5039177;28;20053;-65
2022/05/23 06:54:27;;;;;;;6.70;6.40;;;;;;;23.68;34.50;100102.78;5028721;28;21793;-65
2022/05/23 06:56:53;;;;;;;6.63;6.32;;;;;;;22.59;36.13;100102.78;5019727;28;20497;-64
2022/05/23 06:59:19;;;;;;;6.60;6.30;;;;;;;22.06;37.50;100107.34;5031122;28;20025;-65
2022/05/23 07:01:47;;;;;;;6.60;6.30;;;;;;;20.58;40.56;100115.09;5033035;28;20030;-64
2022/05/23 07:04:12;;;;;;;6.70;6.40;;;;;;;19.26;42.86;100098.53;5033038;28;20481;-64
2022/05/23 07:14:38;;;;;;;6.82;6.53;;;;;;;18.31;47.14;100115.16;5035861;28;20400;-65
2022/05/23 07:17:05;;;;;;;7.00;6.70;;;;;;;18.51;47.36;100112.09;5036268;28;20029;-65
2022/05/23 07:19:31;;;;;;;7.10;6.80;;;;;;;18.82;47.30;100112.75;5035849;28;20452;-64
2022/05/23 07:21:59;;;;;;;7.07;6.78;;;;;;;19.04;45.53;100119.91;5043499;28;20527;-64
2022/05/23 07:24:26;;;;;;;7.00;6.70;;;;;;;19.36;44.38;100116.72;5033246;28;20025;-63
2022/05/23 07:26:54;;;;;;;6.70;6.40;;;;;;;18.90;45.07;100117.75;5038124;28;20029;-64
2022/05/23 07:29:22;;;;;;;6.85;6.55;;;;;;;18.72;46.15;100122.22;5032678;28;20107;-65
2022/05/23 07:31:48;;;;;;;6.60;6.30;;;;;;;18.52;45.88;100120.97;5030633;28;20022;-64
2022/05/23 07:34:14;;;;;;;6.90;6.60;;;;;;;18.02;46.62;100116.94;5017156;28;20037;-65
2022/05/23 07:36:40;;;;;;;6.90;6.60;;;;;;;17.71;47.98;100122.63;5038177;28;20032;-64
2022/05/23 07:39:08;;;;;;;6.90;6.60;;;;;;;17.34;49.58;100120.88;5029565;28;20103;-65
2022/05/23 07:41:34;;;;;;;6.50;6.20;;;;;;;16.98;50.83;100132.53;5025853;28;20025;-65
2022/05/23 07:43:59;;;;;;;6.93;6.63;;;;;;;17.11;50.97;100126.16;5029662;28;20576;-64
2022/05/23 07:46:25;;;;;;;6.90;6.60;;;;;;;16.90;51.30;100134.69;5030933;28;20037;-65
2022/05/23 07:48:51;;;;;;;7.07;6.78;;;;;;;16.71;52.04;100128.53;5032834;28;20044;-65
2022/05/23 07:51:22;;;;;;;7.05;6.75;;;;;;;17.01;51.47;100136.59;5031887;28;20029;-64
2022/05/23 08:02:00;;;;;;;6.60;6.30;;;;;;;16.94;51.28;100135.88;5029176;28;20070;-64
2022/05/23 08:04:26;;;;;;;7.00;6.70;;;;;;;16.98;51.65;100139.75;5033464;28;20108;-64
2022/05/23 08:06:52;;;;;;;6.85;6.55;;;;;;;16.89;51.61;100146.44;5026976;28;20033;-65
2022/05/23 08:09:18;;;;;;;6.40;6.10;;;;;;;17.03;51.53;100143.34;5033634;28;20678;-65
2022/05/23 08:11:48;;;;;;;7.00;6.70;;;;;;;16.93;50.90;100148.44;5031316;28;20143;-64
2022/05/23 08:14:14;;;;;;;6.90;6.60;;;;;;;17.44;50.27;100146.31;5038297;28;20026;-64
2022/05/23 08:16:40;;;;;;;6.70;6.40;;;;;;;18.04;48.65;100140.84;5037296;28;20438;-65
2022/05/23 08:19:06;;;;;;;6.47;6.18;;;;;;;18.01;48.47;100138.63;5037504;28;20033;-64
2022/05/23 08:21:32;;;;;;;6.65;6.35;;;;;;;17.81;48.11;100131.72;5026042;28;20041;-65
2022/05/23 08:23:59;;;;;;;6.25;6.03;;;;;;;18.42;46.84;100134.97;5030955;28;20025;-64
2022/05/23 08:26:25;;;;;;;6.63;6.32;;;;;;;18.90;45.51;100125.81;5026527;28;20021;-64
2022/05/23 08:28:51;;;;;;;6.68;6.38;;;;;;;19.47;44.72;100144.63;5031143;28;20028;-64
2022/05/23 08:31:17;;;;;;;6.57;6.28;;;;;;;19.16;45.40;100141.34;5029507;28;20025;-65
2022/05/23 08:33:43;;;;;;;6.82;6.53;;;;;;;19.36;45.27;100145.47;5029618;28;20026;-64
2022/05/23 08:36:10;;;;;;;6.70;6.40;;;;;;;18.53;46.89;100142.22;5027087;28;20045;-65
2022/05/23 08:38:36;;;;;;;7.10;6.80;;;;;;;18.38;47.20;100140.03;5030729;28;20029;-65
2022/05/23 08:41:26;;;;;;;6.55;6.25;;;;;;;18.28;47.75;100138.97;5037687;28;20033;-65
2022/05/23 08:44:16;;;;;;;6.70;6.40;;;;;;;18.51;47.67;100141.66;5027493;28;20412;-65
2022/05/23 08:47:14;;;;;;;6.60;6.30;;;;;;;18.31;48.16;100143.88;5034451;28;20033;-63
2022/05/23 08:50:05;;;;;;;6.90;6.60;;;;;;;18.48;47.75;100142.09;5040869;28;20557;-65
2022/05/23 08:52:42;;;;;;;6.82;6.53;;;;;;;18.33;48.19;100147.97;5037305;28;20431;-64
2022/05/23 08:55:17;;;;;;;6.60;6.30;;;;;;;18.20;48.37;100148.19;5027371;28;20037;-64
2022/05/23 08:58:01;;;;;;;6.60;6.30;;;;;;;18.17;48.60;100145.97;5021170;28;20017;-67
2022/05/23 09:00:31;;;;;;;7.03;6.72;;;;;;;18.26;48.70;100146.44;5030567;28;20025;-64
2022/05/23 09:03:09;;;;;;;7.00;6.70;;;;;;;18.32;48.64;100146.31;5033726;28;20029;-64
2022/05/23 09:05:51;;;;;;;6.75;6.45;;;;;;;18.33;48.83;100155.19;5030285;28;20060;-63
2022/05/23 09:08:21;;;;;;;6.78;6.47;;;;;;;18.13;48.80;100136.75;5034984;28;20030;-62
2022/05/23 09:11:03;;;;;;;6.72;6.43;;;;;;;17.81;49.59;100139.78;5034403;28;20033;-65
2022/05/23 09:13:33;;;;;;;6.90;6.60;;;;;;;17.73;50.06;100150.03;5027369;28;20104;-66
2022/05/23 09:16:04;;;;;;;6.93;6.63;;;;;;;18.14;49.31;100149.13;5018179;28;20116;-65
2022/05/23 09:18:42;;;;;;;6.68;6.38;;;;;;;18.13;49.66;100151.00;5022491;28;20029;-64
2022/05/23 09:21:09;;;;;;;7.25;6.95;;;;;;;17.92;48.95;100154.25;5028188;28;20056;-65
2022/05/23 09:23:45;;;;;;;7.40;7.10;;;;;;;18.11;47.87;100157.66;5028641;28;20029;-64
2022/05/23 09:26:27;;;;;;;6.60;6.30;;;;;;;17.73;48.50;100156.22;5025635;28;20062;-65
2022/05/23 09:28:52;;;;;;;6.85;6.55;;;;;;;18.10;47.98;100145.28;5029563;28;20087;-65
2022/05/23 09:31:47;;;;;;;6.50;6.20;;;;;;;18.11;48.26;100150.41;5039142;28;20484;-64
2022/05/23 09:34:35;;;;;;;6.70;6.40;;;;;;;17.72;49.49;100151.91;5015391;28;20083;-66
2022/05/23 09:37:03;;;;;;;6.72;6.43;;;;;;;18.07;48.39;100151.94;5028218;28;20030;-65
2022/05/23 09:39:30;;;;;;;6.90;6.60;;;;;;;17.67;49.04;100155.22;5027934;28;20030;-66
2022/05/23 09:47:47;;;;;;;6.97;6.68;;;;;;;17.22;50.26;100157.53;5031501;28;20032;-63
2022/05/23 09:50:41;;;;;;;7.40;7.10;;;;;;;17.18;51.36;100167.06;5026775;28;20440;-65
2022/05/23 09:53:26;;;;;;;7.10;6.80;;;;;;;17.16;51.74;100163.00;5020385;28;20033;-63
2022/05/23 09:55:51;;;;;;;;;;;;;;;17.29;51.55;100169.00;5020381;28;20116;-65
2022/05/23 09:58:31;;;;;;;6.50;6.20;;;;;;;17.17;51.68;100176.16;5029596;28;20012;-64
2022/05/23 10:01:10;;;;;;;6.90;6.60;;;;;;;17.29;51.71;100177.03;5036574;28;20024;-65
2022/05/23 10:03:46;;;;;;;6.78;6.47;;;;;;;17.72;50.15;100173.38;5028431;28;20032;-64
2022/05/23 10:06:12;;;;;;;6.50;6.20;;;;;;;17.43;50.79;100177.69;5035092;28;20040;-63
2022/05/23 10:08:41;;;;;;;6.68;6.38;;;;;;;17.95;49.82;100173.41;5035816;28;20037;-62
2022/05/23 10:11:52;;;;;;;6.50;6.20;;;;;;;18.30;48.99;100153.81;5046132;28;20503;-65
2022/05/23 10:14:17;;;;;;;6.60;6.30;;;;;;;18.30;49.11;100172.59;5001723;28;20076;-65
2022/05/23 10:16:52;;;;;;;6.32;6.05;;;;;;;17.84;50.22;100159.94;5000115;28;20105;-63
2022/05/23 10:19:33;;;;;;;6.60;6.30;;;;;;;18.46;49.48;100165.69;5021296;28;20041;-65
2022/05/23 10:22:22;;;;;;;7.00;6.60;;;;;;;18.09;50.08;100170.50;5027831;28;20476;-66
2022/05/23 10:24:58;;;;;;;6.70;6.40;;;;;;;17.98;49.71;100166.75;5032319;28;20063;-65
2022/05/23 10:27:38;;;;;;;6.90;6.60;;;;;;;18.05;49.42;100166.63;5036249;28;20039;-65
2022/05/23 10:30:09;;;;;;;6.43;6.13;;;;;;;18.03;49.60;100164.19;5031327;28;20033;-65
2022/05/23 10:32:48;;;;;;;6.60;6.30;;;;;;;18.25;48.93;100160.94;5037831;28;20416;-65
2022/05/23 10:35:35;;;;;;;7.20;6.90;;;;;;;17.84;49.49;100159.94;5019703;28;20493;-64
2022/05/23 10:44:16;;;;;;;6.43;6.13;;;;;;;18.37;48.04;100154.50;5037482;28;19970;-65
2022/05/23 10:46:46;;;;;;;6.75;6.45;;;;;;;18.29;47.69;100154.03;5033009;28;20060;-66
2022/05/23 10:49:57;;;;;;;6.50;6.20;;;;;;;17.94;49.13;100154.84;5029104;28;20057;-64
2022/05/23 10:52:40;;;;;;;6.53;6.22;;;;;;;17.88;50.11;100153.91;4986472;28;20030;-65
2022/05/23 10:55:15;;;;;;;6.90;6.60;;;;;;;17.36;50.51;100148.28;5026253;28;20466;-65
2022/05/23 10:57:44;;;;;;;6.60;6.30;;;;;;;17.31;50.42;100166.09;5031979;28;20056;-65
2022/05/23 11:00:17;;;;;;;6.90;6.60;;;;;;;17.45;50.27;100156.81;5037585;28;20025;-65
2022/05/23 11:03:01;;;;;;;6.57;6.28;;;;;;;17.67;49.98;100159.78;5031425;28;20044;-65
2022/05/23 11:05:49;;;;;;;6.38;6.07;;;;;;;17.82;49.84;100157.50;5038139;28;20036;-65
2022/05/23 11:08:46;;;;;;;6.68;6.38;;;;;;;18.43;48.49;100164.28;5031529;28;20029;-64
2022/05/23 11:11:37;;;;;;;6.40;6.10;;;;;;;18.08;49.89;100169.69;5033337;28;20407;-64
2022/05/23 11:14:20;;;;;;;6.43;6.13;;;;;;;18.70;47.97;100172.69;5021928;28;20411;-64
2022/05/23 11:17:13;;;;;;;6.90;6.60;;;;;;;19.07;47.47;100166.19;5035008;28;20101;-67
2022/05/23 11:19:50;;;;;;;6.93;6.63;;;;;;;18.69;48.81;100168.38;5028188;28;20044;-67
2022/05/23 11:22:23;;;;;;;6.75;6.45;;;;;;;19.29;47.79;100167.16;5038473;28;20017;-67
2022/05/23 11:24:51;;;;;;;6.97;6.68;;;;;;;19.37;46.57;100163.25;5039737;28;21473;-67
2022/05/23 11:36:00;;;;;;;6.70;6.40;;;;;;;19.07;46.01;100160.81;5030091;28;20048;-65
2022/05/23 11:38:29;;;;;;;7.13;6.82;;;;;;;19.44;45.16;100162.03;5036380;28;20076;-65
2022/05/23 11:41:24;;;;;;;6.50;6.20;;;;;;;19.29;45.50;100170.66;5029529;28;20071;-66
2022/05/23 11:43:49;;;;;;;6.43;6.13;;;;;;;19.49;45.69;100172.09;5036746;28;20393;-66
2022/05/23 11:46:15;;;;;;;6.63;6.32;;;;;;;19.26;45.75;100160.38;5033927;28;20037;-66
2022/05/23 11:48:50;;;;;;;7.07;6.78;;;;;;;19.12;46.51;100171.66;5042147;28;20104;-65
2022/05/23 11:51:37;;;;;;;6.80;6.50;;;;;;;19.50;45.76;100171.84;5030024;28;20799;-65
2022/05/23 11:54:23;;;;;;;6.70;6.40;;;;;;;19.53;45.26;100174.03;5025647;28;20033;-66
2022/05/23 11:57:01;;;;;;;6.60;6.30;;;;;;;19.21;45.36;100172.91;5043235;28;20543;-66
2022/05/23 11:59:27;;;;;;;6.70;6.40;;;;;;;19.36;45.66;100173.19;5036098;28;20096;-66
2022/05/23 12:02:11;;;;;;;6.80;6.50;;;;;;;19.89;44.46;100174.69;5034586;28;20029;-65
2022/05/23 12:04:48;;;;;;;7.22;6.93;;;;;;;20.32;44.16;100171.31;5027900;28;20037;-68
2022/05/23 12:07:42;;;;;;;6.80;6.50;;;;;;;19.96;44.81;100158.34;5020512;28;20030;-65
2022/05/23 12:10:22;;;;;;;6.93;6.63;;;;;;;20.10;44.19;100162.34;5023062;28;20057;-65
2022/05/23 12:12:52;;;;;;;6.90;6.60;;;;;;;20.05;44.30;100159.56;5034125;28;20025;-65
2022/05/23 12:15:42;;;;;;;6.90;6.60;;;;;;;20.05;44.76;100165.81;5022791;28;20033;-66
2022/05/23 12:18:26;;;;;;;6.60;6.30;;;;;;;20.14;44.46;100158.94;5045659;28;20034;-67
2022/05/23 12:21:26;;;;;;;6.47;6.18;;;;;;;20.51;43.72;100157.59;5031672;28;20037;-65
2022/05/23 12:24:18;;;;;;;7.10;6.80;;;;;;;20.57;43.37;100157.41;5038579;28;20488;-66
2022/05/23 12:26:52;;;;;;;6.45;6.15;;;;;;;20.13;43.97;100151.09;5031321;28;20515;-66
2022/05/23 12:29:37;;;;;;;6.38;6.10;;;;;;;19.39;46.53;100147.69;5021684;28;20033;-66
2022/05/23 12:32:24;;;;;;;6.70;6.40;;;;;;;19.03;47.45;100149.72;5026033;28;20051;-65
2022/05/23 12:34:52;;;;;;;6.45;6.15;;;;;;;19.12;48.11;100158.22;5042313;28;20421;-66
2022/05/23 12:37:20;;;;;;;6.82;6.53;;;;;;;19.13;47.66;100160.66;5034075;28;20021;-66
2022/05/23 12:40:11;;;;;;;6.72;6.43;;;;;;;19.07;48.04;100148.19;5032883;28;20392;-65
2022/05/23 12:42:42;;;;;;;6.65;6.35;;;;;;;19.15;47.59;100147.78;5023818;28;20552;-67
2022/05/23 12:45:13;;;;;;;6.85;6.55;;;;;;;19.09;48.01;100148.75;5019541;28;20129;-66
2022/05/23 12:48:15;;;;;;;7.60;7.30;;;;;;;19.16;47.53;100135.16;5013000;28;20032;-66